sensor_id;sensor_type;location;lat;lon;timestamp;temperature;humidity
8487;DHT22;4280;50.534;8.708;2022-11-11T00:01:17;6.30;99.90
8487;DHT22;4280;50.534;8.708;2022-11-11T00:04:06;6.30;99.90
8487;DHT22;4280;50.534;8.708;2022-11-11T00:06:54;6.30;99.90
8487;DHT22;4280;50.534;8.708;2022-11-11T00:09:42;6.30;99.90
8487;DHT22;4280;50.534;8.708;2022-11-11T00:12:30;6.40;99.90
8487;DHT22;4280;50.534;8.708;2022-11-11T00:15:27;6.50;99.90
8487;DHT22;4280;50.534;8.708;2022-11-11T00:18:18;6.60;99.90
8487;DHT22;4280;50.534;8.708;2022-11-11T00:21:19;6.70;99.90
8487;DHT22;4280;50.534;8.708;2022-11-11T00:24:26;6.70;99.90
8487;DHT22;4280;50.534;8.708;2022-11-11T00:27:27;6.70;99.90
8487;DHT22;4280;50.534;8.708;2022-11-11T00:30:16;6.80;99.90
8487;DHT22;4280;50.534;8.708;2022-11-11T00:33:04;6.80;99.90
8487;DHT22;4280;50.534;8.708;2022-11-11T00:35:54;6.70;99.90
8487;DHT22;4280;50.534;8.708;2022-11-11T00:38:43;6.80;99.90
8487;DHT22;4280;50.534;8.708;2022-11-11T00:41:34;6.80;99.90
8487;DHT22;4280;50.534;8.708;2022-11-11T00:44:22;6.80;99.90
8487;DHT22;4280;50.534;8.708;2022-11-11T00:47:10;6.80;99.90
8487;DHT22;4280;50.534;8.708;2022-11-11T00:50:21;6.70;99.90
8487;DHT22;4280;50.534;8.708;2022-11-11T00:53:24;6.70;99.90
8487;DHT22;4280;50.534;8.708;2022-11-11T00:56:13;6.70;99.90
8487;DHT22;4280;50.534;8.708;2022-11-11T00:59:01;6.70;99.90
8487;DHT22;4280;50.534;8.708;2022-11-11T01:01:50;6.80;99.90
8487;DHT22;4280;50.534;8.708;2022-11-11T01:04:38;6.70;99.90
8487;DHT22;4280;50.534;8.708;2022-11-11T01:07:28;6.70;99.90
8487;DHT22;4280;50.534;8.708;2022-11-11T01:10:19;6.80;99.90
8487;DHT22;4280;50.534;8.708;2022-11-11T01:13:21;6.70;99.90
8487;DHT22;4280;50.534;8.708;2022-11-11T01:16:11;6.70;99.90
8487;DHT22;4280;50.534;8.708;2022-11-11T01:19:00;6.70;99.90
8487;DHT22;4280;50.534;8.708;2022-11-11T01:21:49;6.60;99.90
8487;DHT22;4280;50.534;8.708;2022-11-11T01:24:37;6.60;99.90
8487;DHT22;4280;50.534;8.708;2022-11-11T01:27:28;6.50;99.90
8487;DHT22;4280;50.534;8.708;2022-11-11T01:30:16;6.50;99.90
8487;DHT22;4280;50.534;8.708;2022-11-11T01:33:05;6.50;99.90
8487;DHT22;4280;50.534;8.708;2022-11-11T01:35:53;6.40;99.90
8487;DHT22;4280;50.534;8.708;2022-11-11T01:38:41;6.40;99.90
8487;DHT22;4280;50.534;8.708;2022-11-11T01:41:30;6.40;99.90
8487;DHT22;4280;50.534;8.708;2022-11-11T01:47:28;6.40;99.90
8487;DHT22;4280;50.534;8.708;2022-11-11T01:50:53;6.40;99.90
8487;DHT22;4280;50.534;8.708;2022-11-11T01:53:39;6.40;99.90
8487;DHT22;4280;50.534;8.708;2022-11-11T01:56:27;6.40;99.90
8487;DHT22;4280;50.534;8.708;2022-11-11T01:59:16;6.40;99.90
8487;DHT22;4280;50.534;8.708;2022-11-11T02:02:06;6.40;99.90
8487;DHT22;4280;50.534;8.708;2022-11-11T02:04:59;6.40;99.90
8487;DHT22;4280;50.534;8.708;2022-11-11T02:08:01;6.40;99.90
8487;DHT22;4280;50.534;8.708;2022-11-11T02:10:52;6.50;99.90
8487;DHT22;4280;50.534;8.708;2022-11-11T02:13:41;6.50;99.90
8487;DHT22;4280;50.534;8.708;2022-11-11T02:16:42;6.50;99.90
8487;DHT22;4280;50.534;8.708;2022-11-11T02:19:32;6.50;99.90
8487;DHT22;4280;50.534;8.708;2022-11-11T02:22:27;6.50;99.90
8487;DHT22;4280;50.534;8.708;2022-11-11T02:25:21;6.50;99.90
8487;DHT22;4280;50.534;8.708;2022-11-11T02:28:10;6.50;99.90
8487;DHT22;4280;50.534;8.708;2022-11-11T02:30:59;6.50;99.90
8487;DHT22;4280;50.534;8.708;2022-11-11T02:33:47;6.50;99.90
8487;DHT22;4280;50.534;8.708;2022-11-11T02:36:35;6.50;99.90
8487;DHT22;4280;50.534;8.708;2022-11-11T02:39:24;6.50;99.90
8487;DHT22;4280;50.534;8.708;2022-11-11T02:42:29;6.50;99.90
8487;DHT22;4280;50.534;8.708;2022-11-11T02:45:18;6.50;99.90
8487;DHT22;4280;50.534;8.708;2022-11-11T02:48:06;6.50;99.90
8487;DHT22;4280;50.534;8.708;2022-11-11T02:50:54;6.60;99.90
8487;DHT22;4280;50.534;8.708;2022-11-11T02:53:43;6.60;99.90
8487;DHT22;4280;50.534;8.708;2022-11-11T02:56:31;6.50;99.90
8487;DHT22;4280;50.534;8.708;2022-11-11T02:59:35;6.50;99.90
8487;DHT22;4280;50.534;8.708;2022-11-11T03:02:24;6.60;99.90
8487;DHT22;4280;50.534;8.708;2022-11-11T03:05:13;6.60;99.90
8487;DHT22;4280;50.534;8.708;2022-11-11T03:08:02;6.70;99.90
8487;DHT22;4280;50.534;8.708;2022-11-11T03:10:50;6.60;99.90
8487;DHT22;4280;50.534;8.708;2022-11-11T03:13:38;6.60;99.90
8487;DHT22;4280;50.534;8.708;2022-11-11T03:16:29;6.60;99.90
8487;DHT22;4280;50.534;8.708;2022-11-11T03:19:30;6.50;99.90
8487;DHT22;4280;50.534;8.708;2022-11-11T03:22:18;6.50;99.90
8487;DHT22;4280;50.534;8.708;2022-11-11T03:25:26;6.40;99.90
8487;DHT22;4280;50.534;8.708;2022-11-11T03:28:26;6.40;99.90
8487;DHT22;4280;50.534;8.708;2022-11-11T03:31:15;6.50;99.90
8487;DHT22;4280;50.534;8.708;2022-11-11T03:34:06;6.50;99.90
8487;DHT22;4280;50.534;8.708;2022-11-11T03:37:07;6.40;99.90
8487;DHT22;4280;50.534;8.708;2022-11-11T03:40:08;6.40;99.90
8487;DHT22;4280;50.534;8.708;2022-11-11T03:42:57;6.40;99.90
8487;DHT22;4280;50.534;8.708;2022-11-11T03:45:48;6.40;99.90
8487;DHT22;4280;50.534;8.708;2022-11-11T03:48:36;6.50;99.90
8487;DHT22;4280;50.534;8.708;2022-11-11T03:51:27;6.50;99.90
8487;DHT22;4280;50.534;8.708;2022-11-11T03:54:15;6.40;99.90
8487;DHT22;4280;50.534;8.708;2022-11-11T03:57:04;6.40;99.90
8487;DHT22;4280;50.534;8.708;2022-11-11T04:00:05;6.40;99.90
8487;DHT22;4280;50.534;8.708;2022-11-11T04:03:01;6.40;99.90
8487;DHT22;4280;50.534;8.708;2022-11-11T04:06:02;6.40;99.90
8487;DHT22;4280;50.534;8.708;2022-11-11T04:09:06;6.40;99.90
8487;DHT22;4280;50.534;8.708;2022-11-11T04:12:06;6.30;99.90
8487;DHT22;4280;50.534;8.708;2022-11-11T04:14:54;6.30;99.90
8487;DHT22;4280;50.534;8.708;2022-11-11T04:17:55;6.30;99.90
8487;DHT22;4280;50.534;8.708;2022-11-11T04:20:47;6.30;99.90
8487;DHT22;4280;50.534;8.708;2022-11-11T04:23:47;6.30;99.90
8487;DHT22;4280;50.534;8.708;2022-11-11T04:26:38;6.30;99.90
8487;DHT22;4280;50.534;8.708;2022-11-11T04:29:24;6.30;99.90
8487;DHT22;4280;50.534;8.708;2022-11-11T04:32:16;6.30;99.90
8487;DHT22;4280;50.534;8.708;2022-11-11T04:35:17;6.30;99.90
8487;DHT22;4280;50.534;8.708;2022-11-11T04:38:05;6.30;99.90
8487;DHT22;4280;50.534;8.708;2022-11-11T04:41:06;6.30;99.90
8487;DHT22;4280;50.534;8.708;2022-11-11T04:43:57;6.20;99.90
8487;DHT22;4280;50.534;8.708;2022-11-11T04:46:58;6.20;99.90
8487;DHT22;4280;50.534;8.708;2022-11-11T04:49:46;6.20;99.90
8487;DHT22;4280;50.534;8.708;2022-11-11T04:52:34;6.20;99.90
8487;DHT22;4280;50.534;8.708;2022-11-11T04:55:22;6.20;99.90
8487;DHT22;4280;50.534;8.708;2022-11-11T04:58:24;6.20;99.90
8487;DHT22;4280;50.534;8.708;2022-11-11T05:01:15;6.20;99.90
8487;DHT22;4280;50.534;8.708;2022-11-11T05:04:23;6.30;99.90
8487;DHT22;4280;50.534;8.708;2022-11-11T05:07:09;6.20;99.90
8487;DHT22;4280;50.534;8.708;2022-11-11T05:10:10;6.20;99.90
8487;DHT22;4280;50.534;8.708;2022-11-11T05:12:58;6.20;99.90
8487;DHT22;4280;50.534;8.708;2022-11-11T05:16:00;6.30;99.90
8487;DHT22;4280;50.534;8.708;2022-11-11T05:19:03;6.20;99.90
8487;DHT22;4280;50.534;8.708;2022-11-11T05:22:06;6.20;99.90
8487;DHT22;4280;50.534;8.708;2022-11-11T05:24:56;6.20;99.90
8487;DHT22;4280;50.534;8.708;2022-11-11T05:27:57;6.30;99.90
8487;DHT22;4280;50.534;8.708;2022-11-11T05:30:46;6.30;99.90
8487;DHT22;4280;50.534;8.708;2022-11-11T05:33:34;6.30;99.90
8487;DHT22;4280;50.534;8.708;2022-11-11T05:36:24;6.40;99.90
8487;DHT22;4280;50.534;8.708;2022-11-11T05:39:13;6.40;99.90
8487;DHT22;4280;50.534;8.708;2022-11-11T05:42:01;6.40;99.90
8487;DHT22;4280;50.534;8.708;2022-11-11T05:44:49;6.50;99.90
8487;DHT22;4280;50.534;8.708;2022-11-11T05:47:38;6.50;99.90
8487;DHT22;4280;50.534;8.708;2022-11-11T05:50:26;6.40;99.90
8487;DHT22;4280;50.534;8.708;2022-11-11T05:53:17;6.50;99.90
8487;DHT22;4280;50.534;8.708;2022-11-11T05:56:08;6.40;99.90
8487;DHT22;4280;50.534;8.708;2022-11-11T05:58:57;6.40;99.90
8487;DHT22;4280;50.534;8.708;2022-11-11T06:01:45;6.50;99.90
8487;DHT22;4280;50.534;8.708;2022-11-11T06:04:34;6.40;99.90
8487;DHT22;4280;50.534;8.708;2022-11-11T06:07:22;6.40;99.90
8487;DHT22;4280;50.534;8.708;2022-11-11T06:10:13;6.40;99.90
8487;DHT22;4280;50.534;8.708;2022-11-11T06:13:19;6.40;99.90
8487;DHT22;4280;50.534;8.708;2022-11-11T06:16:08;6.40;99.90
8487;DHT22;4280;50.534;8.708;2022-11-11T06:18:56;6.40;99.90
8487;DHT22;4280;50.534;8.708;2022-11-11T06:21:44;6.40;99.90
8487;DHT22;4280;50.534;8.708;2022-11-11T06:24:46;6.40;99.90
8487;DHT22;4280;50.534;8.708;2022-11-11T06:27:56;6.40;99.90
8487;DHT22;4280;50.534;8.708;2022-11-11T06:30:46;6.40;99.90
8487;DHT22;4280;50.534;8.708;2022-11-11T06:33:36;6.30;99.90
8487;DHT22;4280;50.534;8.708;2022-11-11T06:36:24;6.20;99.90
8487;DHT22;4280;50.534;8.708;2022-11-11T06:39:12;6.20;99.90
8487;DHT22;4280;50.534;8.708;2022-11-11T06:42:00;6.20;99.90
8487;DHT22;4280;50.534;8.708;2022-11-11T06:44:51;6.20;99.90
8487;DHT22;4280;50.534;8.708;2022-11-11T06:47:40;6.10;99.90
8487;DHT22;4280;50.534;8.708;2022-11-11T06:50:29;6.00;99.90
8487;DHT22;4280;50.534;8.708;2022-11-11T06:53:18;6.00;99.90
8487;DHT22;4280;50.534;8.708;2022-11-11T06:56:06;6.00;99.90
8487;DHT22;4280;50.534;8.708;2022-11-11T06:58:57;6.00;99.90
8487;DHT22;4280;50.534;8.708;2022-11-11T07:01:48;6.00;99.90
8487;DHT22;4280;50.534;8.708;2022-11-11T07:04:37;6.10;99.90
8487;DHT22;4280;50.534;8.708;2022-11-11T07:07:26;6.10;99.90
8487;DHT22;4280;50.534;8.708;2022-11-11T07:10:15;6.00;99.90
8487;DHT22;4280;50.534;8.708;2022-11-11T07:13:04;6.00;99.90
8487;DHT22;4280;50.534;8.708;2022-11-11T07:15:52;6.00;99.90
8487;DHT22;4280;50.534;8.708;2022-11-11T07:18:47;6.00;99.90
8487;DHT22;4280;50.534;8.708;2022-11-11T07:21:37;6.00;99.90
8487;DHT22;4280;50.534;8.708;2022-11-11T07:24:30;6.10;99.90
8487;DHT22;4280;50.534;8.708;2022-11-11T07:27:21;6.10;99.90
8487;DHT22;4280;50.534;8.708;2022-11-11T07:30:10;6.10;99.90
8487;DHT22;4280;50.534;8.708;2022-11-11T07:32:58;6.20;99.90
8487;DHT22;4280;50.534;8.708;2022-11-11T07:35:49;6.20;99.90
8487;DHT22;4280;50.534;8.708;2022-11-11T07:38:38;6.30;99.90
8487;DHT22;4280;50.534;8.708;2022-11-11T07:41:26;6.20;99.90
8487;DHT22;4280;50.534;8.708;2022-11-11T07:44:14;6.30;99.90
8487;DHT22;4280;50.534;8.708;2022-11-11T07:47:03;6.30;99.90
8487;DHT22;4280;50.534;8.708;2022-11-11T07:49:51;6.40;99.90
8487;DHT22;4280;50.534;8.708;2022-11-11T07:52:46;6.50;99.90
8487;DHT22;4280;50.534;8.708;2022-11-11T07:55:34;6.50;99.90
8487;DHT22;4280;50.534;8.708;2022-11-11T07:58:23;6.60;99.90
8487;DHT22;4280;50.534;8.708;2022-11-11T08:01:11;6.60;99.90
8487;DHT22;4280;50.534;8.708;2022-11-11T08:03:59;6.60;99.90
8487;DHT22;4280;50.534;8.708;2022-11-11T08:06:48;6.70;99.90
8487;DHT22;4280;50.534;8.708;2022-11-11T08:09:38;6.70;99.90
8487;DHT22;4280;50.534;8.708;2022-11-11T08:12:27;6.70;99.90
8487;DHT22;4280;50.534;8.708;2022-11-11T08:15:28;6.80;99.90
8487;DHT22;4280;50.534;8.708;2022-11-11T08:18:16;6.80;99.90
8487;DHT22;4280;50.534;8.708;2022-11-11T08:21:04;6.90;99.90
8487;DHT22;4280;50.534;8.708;2022-11-11T08:23:53;6.90;99.90
8487;DHT22;4280;50.534;8.708;2022-11-11T08:27:04;7.00;99.90
8487;DHT22;4280;50.534;8.708;2022-11-11T08:29:54;7.00;99.90
8487;DHT22;4280;50.534;8.708;2022-11-11T08:32:42;7.10;99.90
8487;DHT22;4280;50.534;8.708;2022-11-11T08:35:30;7.10;99.90
8487;DHT22;4280;50.534;8.708;2022-11-11T08:38:19;7.00;99.90
8487;DHT22;4280;50.534;8.708;2022-11-11T08:41:07;7.10;99.90
8487;DHT22;4280;50.534;8.708;2022-11-11T08:43:58;7.20;99.90
8487;DHT22;4280;50.534;8.708;2022-11-11T08:46:46;7.30;99.90
8487;DHT22;4280;50.534;8.708;2022-11-11T08:49:35;7.30;99.90
8487;DHT22;4280;50.534;8.708;2022-11-11T08:52:23;7.30;99.90
8487;DHT22;4280;50.534;8.708;2022-11-11T08:55:11;7.40;99.90
8487;DHT22;4280;50.534;8.708;2022-11-11T08:58:00;7.40;99.90
8487;DHT22;4280;50.534;8.708;2022-11-11T09:00:51;7.50;99.90
8487;DHT22;4280;50.534;8.708;2022-11-11T09:03:39;7.60;99.90
8487;DHT22;4280;50.534;8.708;2022-11-11T09:06:30;7.70;99.90
8487;DHT22;4280;50.534;8.708;2022-11-11T09:09:18;7.70;99.90
8487;DHT22;4280;50.534;8.708;2022-11-11T09:12:06;7.60;99.90
8487;DHT22;4280;50.534;8.708;2022-11-11T09:14:54;7.60;99.90
8487;DHT22;4280;50.534;8.708;2022-11-11T09:17:47;7.60;99.90
8487;DHT22;4280;50.534;8.708;2022-11-11T09:20:36;7.80;99.90
8487;DHT22;4280;50.534;8.708;2022-11-11T09:23:24;7.90;99.90
8487;DHT22;4280;50.534;8.708;2022-11-11T09:26:12;7.90;99.90
8487;DHT22;4280;50.534;8.708;2022-11-11T09:29:03;8.00;99.90
8487;DHT22;4280;50.534;8.708;2022-11-11T09:31:54;8.00;99.90
8487;DHT22;4280;50.534;8.708;2022-11-11T09:34:45;8.00;99.90
8487;DHT22;4280;50.534;8.708;2022-11-11T09:37:34;8.20;99.90
8487;DHT22;4280;50.534;8.708;2022-11-11T09:40:23;8.30;99.90
8487;DHT22;4280;50.534;8.708;2022-11-11T09:43:16;8.20;99.90
8487;DHT22;4280;50.534;8.708;2022-11-11T09:46:11;8.10;99.90
8487;DHT22;4280;50.534;8.708;2022-11-11T09:52:11;8.00;99.90
8487;DHT22;4280;50.534;8.708;2022-11-11T09:55:02;8.20;99.90
8487;DHT22;4280;50.534;8.708;2022-11-11T09:57:52;8.30;99.90
8487;DHT22;4280;50.534;8.708;2022-11-11T10:00:44;8.30;99.90
8487;DHT22;4280;50.534;8.708;2022-11-11T10:03:33;8.20;99.90
8487;DHT22;4280;50.534;8.708;2022-11-11T10:06:25;8.10;99.90
8487;DHT22;4280;50.534;8.708;2022-11-11T15:30:12;8.10;99.90
8487;DHT22;4280;50.534;8.708;2022-11-11T15:33:02;8.10;99.90
8487;DHT22;4280;50.534;8.708;2022-11-11T15:35:52;8.10;99.90
8487;DHT22;4280;50.534;8.708;2022-11-11T15:38:44;8.10;99.90
8487;DHT22;4280;50.534;8.708;2022-11-11T15:41:34;8.20;99.90
8487;DHT22;4280;50.534;8.708;2022-11-11T15:44:25;8.20;99.90
8487;DHT22;4280;50.534;8.708;2022-11-11T15:47:18;8.20;99.90
8487;DHT22;4280;50.534;8.708;2022-11-11T15:50:15;8.10;99.90
8487;DHT22;4280;50.534;8.708;2022-11-11T15:53:03;8.10;99.90
8487;DHT22;4280;50.534;8.708;2022-11-11T15:55:53;8.10;99.90
8487;DHT22;4280;50.534;8.708;2022-11-11T15:58:42;8.10;99.90
8487;DHT22;4280;50.534;8.708;2022-11-11T16:01:30;8.10;99.90
8487;DHT22;4280;50.534;8.708;2022-11-11T16:04:22;8.10;99.90
8487;DHT22;4280;50.534;8.708;2022-11-11T16:07:33;8.00;99.90
8487;DHT22;4280;50.534;8.708;2022-11-11T16:10:24;8.00;99.90
8487;DHT22;4280;50.534;8.708;2022-11-11T16:13:14;7.90;99.90
8487;DHT22;4280;50.534;8.708;2022-11-11T16:16:05;7.90;99.90
8487;DHT22;4280;50.534;8.708;2022-11-11T16:18:57;7.90;99.90
8487;DHT22;4280;50.534;8.708;2022-11-11T16:21:51;7.90;99.90
8487;DHT22;4280;50.534;8.708;2022-11-11T16:24:41;7.90;99.90
8487;DHT22;4280;50.534;8.708;2022-11-11T16:27:31;8.00;99.90
8487;DHT22;4280;50.534;8.708;2022-11-11T16:30:27;8.00;99.90
8487;DHT22;4280;50.534;8.708;2022-11-11T16:36:23;7.90;99.90
8487;DHT22;4280;50.534;8.708;2022-11-11T16:39:17;7.90;99.90
8487;DHT22;4280;50.534;8.708;2022-11-11T16:42:06;8.00;99.90
8487;DHT22;4280;50.534;8.708;2022-11-11T16:45:04;7.90;99.90
8487;DHT22;4280;50.534;8.708;2022-11-11T16:47:53;7.90;99.90
8487;DHT22;4280;50.534;8.708;2022-11-11T16:50:51;7.90;99.90
8487;DHT22;4280;50.534;8.708;2022-11-11T16:53:41;7.90;99.90
8487;DHT22;4280;50.534;8.708;2022-11-11T16:56:32;7.90;99.90
8487;DHT22;4280;50.534;8.708;2022-11-11T16:59:28;7.80;99.90
8487;DHT22;4280;50.534;8.708;2022-11-11T17:05:16;7.80;99.90
8487;DHT22;4280;50.534;8.708;2022-11-11T17:10:59;7.80;99.90
8487;DHT22;4280;50.534;8.708;2022-11-11T17:16:46;7.80;99.90
8487;DHT22;4280;50.534;8.708;2022-11-11T17:22:29;7.80;99.90
8487;DHT22;4280;50.534;8.708;2022-11-11T17:59:39;7.80;99.90
8487;DHT22;4280;50.534;8.708;2022-11-11T18:02:36;7.60;99.90
8487;DHT22;4280;50.534;8.708;2022-11-11T18:08:23;7.50;99.90
8487;DHT22;4280;50.534;8.708;2022-11-11T18:14:10;7.50;99.90
8487;DHT22;4280;50.534;8.708;2022-11-11T18:20:05;7.60;99.90
8487;DHT22;4280;50.534;8.708;2022-11-11T18:25:52;7.50;99.90
8487;DHT22;4280;50.534;8.708;2022-11-11T18:31:42;7.50;99.90
8487;DHT22;4280;50.534;8.708;2022-11-11T18:37:33;7.50;99.90
8487;DHT22;4280;50.534;8.708;2022-11-11T18:43:21;7.60;99.90
8487;DHT22;4280;50.534;8.708;2022-11-11T18:49:10;7.70;99.90
8487;DHT22;4280;50.534;8.708;2022-11-11T18:54:58;7.70;99.90
8487;DHT22;4280;50.534;8.708;2022-11-11T19:00:44;7.50;99.90
8487;DHT22;4280;50.534;8.708;2022-11-11T19:06:32;7.50;99.90
8487;DHT22;4280;50.534;8.708;2022-11-11T19:12:20;7.40;99.90
8487;DHT22;4280;50.534;8.708;2022-11-11T19:18:03;7.40;99.90
8487;DHT22;4280;50.534;8.708;2022-11-11T19:23:47;7.50;99.90
8487;DHT22;4280;50.534;8.708;2022-11-11T19:29:37;7.40;99.90
8487;DHT22;4280;50.534;8.708;2022-11-11T19:35:23;7.50;99.90
8487;DHT22;4280;50.534;8.708;2022-11-11T19:41:05;7.40;99.90
8487;DHT22;4280;50.534;8.708;2022-11-11T19:46:54;7.30;99.90
8487;DHT22;4280;50.534;8.708;2022-11-11T19:52:44;7.40;99.90
8487;DHT22;4280;50.534;8.708;2022-11-11T19:58:28;7.40;99.90
8487;DHT22;4280;50.534;8.708;2022-11-11T20:04:14;7.30;99.90
8487;DHT22;4280;50.534;8.708;2022-11-11T20:09:58;7.40;99.90
8487;DHT22;4280;50.534;8.708;2022-11-11T20:12:50;7.40;99.90
8487;DHT22;4280;50.534;8.708;2022-11-11T20:18:32;7.40;99.90
8487;DHT22;4280;50.534;8.708;2022-11-11T20:24:18;7.40;99.90
8487;DHT22;4280;50.534;8.708;2022-11-11T20:30:02;7.40;99.90
8487;DHT22;4280;50.534;8.708;2022-11-11T20:35:49;7.30;99.90
8487;DHT22;4280;50.534;8.708;2022-11-11T20:41:40;7.50;99.90
8487;DHT22;4280;50.534;8.708;2022-11-11T20:47:25;7.50;99.90
8487;DHT22;4280;50.534;8.708;2022-11-11T20:53:16;7.40;99.90
8487;DHT22;4280;50.534;8.708;2022-11-11T20:59:02;7.40;99.90
8487;DHT22;4280;50.534;8.708;2022-11-11T21:04:52;7.30;99.90
8487;DHT22;4280;50.534;8.708;2022-11-11T21:10:38;7.20;99.90
8487;DHT22;4280;50.534;8.708;2022-11-11T21:16:27;7.20;99.90
8487;DHT22;4280;50.534;8.708;2022-11-11T21:22:10;7.10;99.90
8487;DHT22;4280;50.534;8.708;2022-11-11T21:27:57;7.10;99.90
8487;DHT22;4280;50.534;8.708;2022-11-11T21:33:49;7.20;99.90
8487;DHT22;4280;50.534;8.708;2022-11-11T21:39:36;7.30;99.90
8487;DHT22;4280;50.534;8.708;2022-11-11T21:45:19;7.40;99.90
8487;DHT22;4280;50.534;8.708;2022-11-11T21:51:06;7.30;99.90
8487;DHT22;4280;50.534;8.708;2022-11-11T21:56:54;7.30;99.90
8487;DHT22;4280;50.534;8.708;2022-11-11T22:02:41;7.30;99.90
8487;DHT22;4280;50.534;8.708;2022-11-11T22:08:28;7.20;99.90
8487;DHT22;4280;50.534;8.708;2022-11-11T22:14:12;7.00;99.90
8487;DHT22;4280;50.534;8.708;2022-11-11T22:19:56;6.90;99.90
8487;DHT22;4280;50.534;8.708;2022-11-11T22:25:45;6.80;99.90
8487;DHT22;4280;50.534;8.708;2022-11-11T22:31:29;6.70;99.90
8487;DHT22;4280;50.534;8.708;2022-11-11T22:37:17;6.80;99.90
8487;DHT22;4280;50.534;8.708;2022-11-11T22:43:09;6.80;99.90
8487;DHT22;4280;50.534;8.708;2022-11-11T22:48:56;6.80;99.90
8487;DHT22;4280;50.534;8.708;2022-11-11T22:54:44;6.80;99.90
8487;DHT22;4280;50.534;8.708;2022-11-11T23:00:39;6.80;99.90
8487;DHT22;4280;50.534;8.708;2022-11-11T23:06:27;6.90;99.90
8487;DHT22;4280;50.534;8.708;2022-11-11T23:12:12;6.90;99.90
8487;DHT22;4280;50.534;8.708;2022-11-11T23:17:59;6.90;99.90
8487;DHT22;4280;50.534;8.708;2022-11-11T23:23:43;7.00;99.90
8487;DHT22;4280;50.534;8.708;2022-11-11T23:29:34;7.00;99.90
8487;DHT22;4280;50.534;8.708;2022-11-11T23:35:21;6.90;99.90
8487;DHT22;4280;50.534;8.708;2022-11-11T23:41:07;6.90;99.90
8487;DHT22;4280;50.534;8.708;2022-11-11T23:46:56;7.00;99.90
8487;DHT22;4280;50.534;8.708;2022-11-11T23:52:43;7.00;99.90
8487;DHT22;4280;50.534;8.708;2022-11-11T23:58:27;7.10;99.90
